Time;durP1;ratioP1;P1;durP2;ratioP2;P2;SDS_P1;SDS_P2;PMS_P1;PMS_P2;Temp;Humidity;BMP_temperature;BMP_pressure;BME280_temperature;BME280_humidity;BME280_pressure;Samples;Min_cycle;Max_cycle;Signal;HPM_P1;HPM_P2
2022/09/19 00:00:14;;;;;;;4.60;2.88;;;11.70;99.10;;;;;;4958771;28;20066;-54
2022/09/19 00:02:41;;;;;;;6.35;3.42;;;11.70;99.20;;;;;;4958512;28;20479;-57
2022/09/19 00:05:08;;;;;;;7.68;3.50;;;11.70;99.10;;;;;;4954107;29;20039;-59
2022/09/19 00:07:35;;;;;;;6.00;3.15;;;11.70;99.20;;;;;;4956744;29;20071;-55
2022/09/19 00:10:02;;;;;;;3.92;2.42;;;11.60;99.40;;;;;;4956387;28;20070;-57
2022/09/19 00:12:28;;;;;;;3.58;2.28;;;11.60;99.40;;;;;;4955989;28;20094;-57
2022/09/19 00:14:57;;;;;;;4.65;2.50;;;11.50;99.40;;;;;;4957774;28;20134;-60
2022/09/19 00:17:24;;;;;;;6.18;2.40;;;11.50;99.50;;;;;;4957046;28;20082;-55
2022/09/19 00:19:51;;;;;;;4.53;2.50;;;11.40;99.60;;;;;;4956090;29;20070;-58
2022/09/19 00:22:18;;;;;;;7.57;2.30;;;11.40;99.70;;;;;;4956576;28;20074;-60
2022/09/19 00:24:50;;;;;;;4.47;2.28;;;11.40;99.80;;;;;;4956883;28;20043;-57
2022/09/19 00:27:18;;;;;;;7.13;3.10;;;11.30;99.80;;;;;;4954388;29;20039;-59
2022/09/19 00:29:45;;;;;;;6.05;2.60;;;11.30;99.90;;;;;;4952690;28;20048;-59
2022/09/19 00:32:12;;;;;;;7.72;2.70;;;11.30;99.90;;;;;;4952484;29;20047;-60
2022/09/19 00:34:39;;;;;;;8.70;3.20;;;11.30;99.90;;;;;;4956084;28;20475;-54
2022/09/19 00:37:06;;;;;;;4.45;2.72;;;11.30;99.90;;;;;;4956566;28;20102;-55
2022/09/19 00:39:32;;;;;;;5.28;2.75;;;11.30;99.90;;;;;;4955030;28;20098;-59
2022/09/19 00:41:59;;;;;;;7.18;2.92;;;11.30;99.90;;;;;;4956523;28;20036;-58
2022/09/19 00:44:26;;;;;;;5.47;2.75;;;11.30;99.90;;;;;;4970895;28;20514;-55
2022/09/19 00:46:52;;;;;;;6.40;2.80;;;11.30;99.90;;;;;;4957567;29;20044;-55
2022/09/19 00:49:20;;;;;;;4.90;2.72;;;11.30;99.90;;;;;;4957169;28;20090;-54
2022/09/19 00:51:47;;;;;;;5.97;2.97;;;11.30;99.90;;;;;;4957199;29;20071;-59
2022/09/19 00:54:14;;;;;;;6.78;2.65;;;11.30;99.90;;;;;;4956574;28;20050;-58
2022/09/19 00:56:40;;;;;;;5.93;3.00;;;11.30;99.90;;;;;;4954580;28;22046;-56
2022/09/19 00:59:07;;;;;;;6.97;2.95;;;11.30;99.80;;;;;;4956275;28;20175;-56
2022/09/19 01:01:34;;;;;;;6.97;3.28;;;11.30;99.90;;;;;;4955380;28;20102;-56
2022/09/19 01:04:01;;;;;;;6.13;2.60;;;11.40;99.90;;;;;;4956220;28;20045;-54
2022/09/19 01:06:32;;;;;;;6.07;2.80;;;11.40;99.90;;;;;;4954649;28;20043;-56
2022/09/19 01:08:58;;;;;;;4.63;2.45;;;11.40;99.90;;;;;;4955426;28;20051;-60
2022/09/19 01:11:25;;;;;;;4.78;2.47;;;11.40;99.90;;;;;;4956006;28;20040;-58
2022/09/19 01:13:54;;;;;;;6.82;2.65;;;11.40;99.90;;;;;;4954242;28;20470;-57
2022/09/19 01:16:21;;;;;;;4.95;2.53;;;11.40;99.90;;;;;;4947643;29;20139;-56
2022/09/19 01:18:48;;;;;;;5.78;2.50;;;11.30;99.90;;;;;;4956172;28;20097;-53
2022/09/19 01:24:00;;;;;;;5.13;2.25;;;11.40;99.90;;;;;;4954359;28;20415;-57
2022/09/19 01:26:32;;;;;;;4.28;2.58;;;11.40;99.90;;;;;;4955386;28;20043;-56
2022/09/19 01:28:59;;;;;;;7.03;2.53;;;11.50;99.90;;;;;;4956849;28;20063;-58
2022/09/19 01:31:27;;;;;;;4.22;2.38;;;11.40;99.90;;;;;;4954531;29;20035;-54
2022/09/19 01:33:55;;;;;;;6.40;2.65;;;11.40;99.90;;;;;;4954034;28;20561;-57
2022/09/19 01:36:22;;;;;;;5.60;2.58;;;11.50;99.90;;;;;;4954336;29;20054;-60
2022/09/19 01:38:49;;;;;;;3.83;2.63;;;11.50;99.90;;;;;;4954576;29;20043;-59
2022/09/19 01:41:19;;;;;;;4.43;2.50;;;11.60;99.90;;;;;;4970715;28;20470;-57
2022/09/19 01:43:47;;;;;;;7.30;2.47;;;11.60;99.90;;;;;;4968786;28;20502;-57
2022/09/19 01:46:14;;;;;;;6.10;2.60;;;11.50;99.90;;;;;;4954819;29;20498;-57
2022/09/19 01:48:42;;;;;;;4.65;2.72;;;11.50;99.90;;;;;;4955342;29;20057;-54
2022/09/19 01:51:10;;;;;;;5.38;2.88;;;11.50;99.90;;;;;;4954288;28;20047;-59
2022/09/19 01:53:39;;;;;;;5.93;2.80;;;11.40;99.90;;;;;;4954797;29;20043;-58
2022/09/19 01:56:28;;;;;;;7.47;3.28;;;11.40;99.90;;;;;;4954092;29;20058;-54
2022/09/19 01:58:57;;;;;;;4.00;2.80;;;11.40;99.90;;;;;;4952960;29;20482;-56
2022/09/19 02:01:25;;;;;;;5.38;2.88;;;11.40;99.90;;;;;;4954451;29;20562;-57
2022/09/19 02:03:52;;;;;;;7.53;2.72;;;11.40;99.90;;;;;;4954328;28;20039;-59
2022/09/19 02:06:19;;;;;;;4.88;3.05;;;11.40;99.90;;;;;;4969991;28;20043;-54
2022/09/19 02:08:45;;;;;;;6.05;2.95;;;11.40;99.90;;;;;;4952942;29;20146;-58
2022/09/19 02:11:16;;;;;;;5.53;3.13;;;11.40;99.90;;;;;;4940287;29;20051;-59
2022/09/19 02:13:44;;;;;;;5.22;2.47;;;11.40;99.90;;;;;;4953507;28;20474;-55
2022/09/19 02:16:11;;;;;;;5.75;2.90;;;11.40;99.90;;;;;;4952304;29;20061;-55
2022/09/19 02:18:38;;;;;;;8.52;2.67;;;11.40;99.90;;;;;;4968615;28;20093;-58
2022/09/19 02:21:05;;;;;;;4.75;2.80;;;11.40;99.90;;;;;;4969955;28;20071;-59
2022/09/19 02:23:33;;;;;;;5.57;2.80;;;11.40;99.90;;;;;;4953490;29;20071;-57
2022/09/19 02:26:00;;;;;;;7.00;2.75;;;11.40;99.90;;;;;;4943493;29;20043;-53
2022/09/19 02:28:29;;;;;;;6.07;2.70;;;11.40;99.90;;;;;;4950152;29;20078;-55
2022/09/19 02:30:56;;;;;;;3.95;2.42;;;11.50;99.90;;;;;;4952533;29;20043;-54
2022/09/19 02:33:24;;;;;;;4.53;2.65;;;11.50;99.90;;;;;;4953318;28;20066;-56
2022/09/19 02:35:50;;;;;;;3.85;2.30;;;11.50;99.90;;;;;;4953351;28;20499;-59
2022/09/19 02:38:17;;;;;;;5.30;2.70;;;11.50;99.90;;;;;;4954003;29;20035;-59
2022/09/19 02:40:47;;;;;;;5.20;2.78;;;11.50;99.90;;;;;;4953671;29;20051;-55
2022/09/19 02:43:14;;;;;;;4.75;2.75;;;11.50;99.90;;;;;;4968580;28;20122;-58
2022/09/19 02:45:43;;;;;;;4.72;2.65;;;11.50;99.90;;;;;;4949800;29;20051;-59
2022/09/19 02:48:10;;;;;;;3.97;2.70;;;11.50;99.90;;;;;;4953884;29;20055;-57
2022/09/19 02:50:39;;;;;;;4.97;2.60;;;11.50;99.90;;;;;;4954241;28;20058;-56
2022/09/19 02:53:06;;;;;;;4.22;2.55;;;11.50;99.90;;;;;;4954360;29;20517;-56
2022/09/19 02:55:32;;;;;;;6.93;2.47;;;11.40;99.90;;;;;;4952671;29;20387;-54
2022/09/19 02:57:59;;;;;;;5.40;2.58;;;11.40;99.90;;;;;;4952363;29;20518;-57
2022/09/19 03:00:29;;;;;;;6.63;2.60;;;11.50;99.90;;;;;;4953894;28;20051;-55
2022/09/19 03:02:56;;;;;;;4.60;2.40;;;11.50;99.90;;;;;;4968608;28;20143;-57
2022/09/19 03:05:32;;;;;;;5.68;2.42;;;11.60;99.90;;;;;;4956730;29;20395;-55
2022/09/19 03:07:59;;;;;;;4.80;2.40;;;11.60;99.90;;;;;;4973821;28;20106;-57
2022/09/19 03:10:26;;;;;;;7.00;2.92;;;11.60;99.90;;;;;;4956860;28;20097;-55
2022/09/19 03:13:11;;;;;;;4.43;2.60;;;11.70;99.90;;;;;;4959625;28;20059;-59
2022/09/19 03:15:40;;;;;;;8.32;2.90;;;11.70;99.90;;;;;;4958117;29;20750;-56
2022/09/19 03:18:07;;;;;;;5.78;2.70;;;11.70;99.90;;;;;;4956982;28;20081;-60
2022/09/19 03:20:34;;;;;;;4.75;2.30;;;11.70;99.90;;;;;;4957615;29;20142;-56
2022/09/19 03:23:01;;;;;;;4.65;2.30;;;11.80;99.90;;;;;;4958042;28;20578;-57
2022/09/19 03:25:28;;;;;;;5.38;2.47;;;11.80;99.90;;;;;;4971887;28;20047;-53
2022/09/19 03:27:55;;;;;;;7.20;2.47;;;11.80;99.90;;;;;;4956503;29;20059;-53
2022/09/19 03:30:23;;;;;;;6.50;2.38;;;11.80;99.90;;;;;;4957341;29;20058;-57
2022/09/19 03:32:50;;;;;;;8.50;2.40;;;11.80;99.90;;;;;;4972563;28;20048;-57
2022/09/19 03:35:18;;;;;;;7.05;2.60;;;11.80;99.90;;;;;;4971686;28;20458;-59
2022/09/19 03:37:46;;;;;;;6.43;2.50;;;11.80;99.90;;;;;;4956678;29;20053;-55
2022/09/19 03:40:14;;;;;;;7.05;2.70;;;11.80;99.90;;;;;;4971568;28;20046;-55
2022/09/19 03:42:45;;;;;;;4.30;2.50;;;11.80;99.90;;;;;;4957673;29;20098;-56
2022/09/19 03:45:13;;;;;;;5.97;2.10;;;11.80;99.90;;;;;;4957511;28;20050;-54
2022/09/19 03:47:40;;;;;;;6.30;2.38;;;11.80;99.90;;;;;;4958971;28;20070;-55
2022/09/19 03:50:07;;;;;;;5.22;2.20;;;11.80;99.90;;;;;;4957138;28;20149;-57
2022/09/19 03:52:47;;;;;;;8.32;3.33;;;11.90;99.90;;;;;;4957218;29;20039;-57
2022/09/19 03:55:15;;;;;;;6.10;2.67;;;11.90;99.90;;;;;;4956553;29;20059;-56
2022/09/19 03:57:43;;;;;;;5.32;2.30;;;11.90;99.90;;;;;;4972218;28;20507;-59
2022/09/19 04:00:10;;;;;;;8.43;2.20;;;11.90;99.90;;;;;;4956694;29;20487;-56
2022/09/19 04:02:42;;;;;;;7.55;2.40;;;11.90;99.90;;;;;;4957599;28;20065;-58
2022/09/19 04:05:12;;;;;;;6.43;2.30;;;11.90;99.90;;;;;;4956071;29;20089;-57
2022/09/19 04:07:39;;;;;;;4.50;2.20;;;11.90;99.90;;;;;;4954790;29;20040;-58
2022/09/19 04:10:06;;;;;;;6.50;2.72;;;11.90;99.90;;;;;;4973145;28;20065;-59
2022/09/19 04:12:34;;;;;;;5.88;2.65;;;11.90;99.90;;;;;;4956944;29;20054;-59
2022/09/19 04:15:01;;;;;;;7.50;2.67;;;11.90;99.90;;;;;;4956435;28;20054;-57
2022/09/19 04:17:29;;;;;;;6.63;2.28;;;11.90;99.90;;;;;;4956874;29;20090;-59
2022/09/19 04:20:02;;;;;;;3.80;2.28;;;11.90;99.90;;;;;;4955497;29;20050;-59
2022/09/19 04:22:52;;;;;;;6.32;2.65;;;11.90;99.90;;;;;;4956838;28;20071;-57
2022/09/19 04:25:25;;;;;;;7.00;2.35;;;11.90;99.90;;;;;;4955717;29;20411;-58
2022/09/19 04:28:00;;;;;;;6.97;2.45;;;11.90;99.90;;;;;;4955122;29;20432;-60
2022/09/19 04:30:27;;;;;;;6.90;2.45;;;11.90;99.90;;;;;;4940067;29;20464;-55
2022/09/19 04:32:58;;;;;;;7.85;2.53;;;11.90;99.90;;;;;;4953464;28;20039;-54
2022/09/19 04:35:25;;;;;;;6.90;2.65;;;11.90;99.90;;;;;;4968523;28;20043;-56
2022/09/19 04:37:52;;;;;;;7.22;3.33;;;11.90;99.90;;;;;;4954859;29;20043;-58
2022/09/19 04:40:21;;;;;;;7.35;2.78;;;11.90;99.90;;;;;;4971780;28;20481;-59
2022/09/19 04:42:48;;;;;;;6.13;2.58;;;11.90;99.90;;;;;;4952017;28;20035;-55
2022/09/19 04:45:20;;;;;;;5.90;2.38;;;11.90;99.90;;;;;;4953460;28;20126;-58
2022/09/19 04:48:15;;;;;;;4.85;2.30;;;11.90;99.90;;;;;;4955619;29;20066;-56
2022/09/19 04:50:42;;;;;;;8.73;2.63;;;12.00;99.90;;;;;;4970087;28;20142;-55
2022/09/19 04:53:12;;;;;;;6.95;2.17;;;12.00;99.90;;;;;;4955556;28;20043;-58
2022/09/19 04:55:41;;;;;;;5.35;2.15;;;12.10;99.90;;;;;;4972016;28;20138;-59
2022/09/19 04:58:08;;;;;;;7.50;2.47;;;12.10;99.90;;;;;;4954478;29;20039;-59
2022/09/19 05:00:38;;;;;;;4.85;1.90;;;12.10;99.90;;;;;;4955098;29;20055;-60
2022/09/19 05:03:11;;;;;;;5.47;2.08;;;12.10;99.90;;;;;;4952127;29;20143;-59
2022/09/19 05:05:39;;;;;;;7.22;2.47;;;12.10;99.90;;;;;;4945665;29;20055;-57
2022/09/19 05:08:07;;;;;;;6.30;2.35;;;12.10;99.90;;;;;;4970984;28;20075;-59
2022/09/19 05:10:34;;;;;;;5.22;2.08;;;12.10;99.90;;;;;;4954369;29;20054;-54
2022/09/19 05:13:01;;;;;;;8.15;2.63;;;12.10;99.90;;;;;;4954850;28;20051;-60
2022/09/19 05:15:28;;;;;;;7.03;2.50;;;12.10;99.90;;;;;;4953970;29;20055;-59
2022/09/19 05:17:55;;;;;;;5.28;2.17;;;12.10;99.90;;;;;;4952600;29;20058;-57
2022/09/19 05:20:26;;;;;;;9.25;2.50;;;12.10;99.90;;;;;;4968930;28;20055;-55
2022/09/19 05:22:53;;;;;;;5.10;2.30;;;12.10;99.90;;;;;;4953368;29;20048;-58
2022/09/19 05:25:20;;;;;;;6.38;2.20;;;12.10;99.90;;;;;;4970495;28;20042;-60
2022/09/19 05:27:46;;;;;;;5.25;2.47;;;12.10;99.90;;;;;;4950432;28;20051;-60
2022/09/19 05:30:13;;;;;;;6.78;2.35;;;12.10;99.90;;;;;;4954501;28;20057;-57
2022/09/19 05:32:44;;;;;;;6.90;2.60;;;12.10;99.90;;;;;;4951916;29;20085;-60
2022/09/19 05:35:30;;;;;;;4.68;2.10;;;12.10;99.90;;;;;;4954451;28;20051;-57
2022/09/19 05:38:28;;;;;;;3.33;1.95;;;12.20;99.90;;;;;;4946268;28;20055;-57
2022/09/19 05:41:01;;;;;;;7.20;2.55;;;12.20;99.90;;;;;;4965155;28;20045;-60
2022/09/19 05:43:39;;;;;;;5.53;2.05;;;12.20;99.90;;;;;;4954950;29;20062;-58
2022/09/19 05:46:08;;;;;;;4.50;2.08;;;12.20;99.90;;;;;;4955393;29;20138;-57
2022/09/19 05:48:37;;;;;;;7.53;1.95;;;12.20;99.90;;;;;;4954742;29;20043;-59
2022/09/19 05:51:05;;;;;;;9.43;2.40;;;12.30;99.90;;;;;;4954966;29;20105;-57
2022/09/19 05:56:52;;;;;;;4.55;2.05;;;12.30;99.90;;;;;;4933784;28;20047;-58
2022/09/19 05:59:21;;;;;;;4.30;1.92;;;12.30;99.90;;;;;;4954656;29;20043;-55
2022/09/19 06:01:49;;;;;;;5.32;2.00;;;12.30;99.90;;;;;;4955093;28;20506;-56
2022/09/19 06:04:38;;;;;;;7.65;2.20;;;12.30;99.90;;;;;;4954602;29;20049;-58
2022/09/19 06:07:09;;;;;;;7.70;2.55;;;12.30;99.90;;;;;;4955092;29;20051;-57
2022/09/19 06:09:36;;;;;;;6.88;2.38;;;12.30;99.90;;;;;;4954530;28;20051;-59
2022/09/19 06:12:03;;;;;;;6.15;2.20;;;12.30;99.90;;;;;;4955099;28;20046;-56
2022/09/19 06:14:31;;;;;;;5.43;2.13;;;12.40;99.90;;;;;;4954578;29;20435;-55
2022/09/19 06:17:02;;;;;;;9.75;2.40;;;12.40;99.90;;;;;;4955194;28;20058;-53
2022/09/19 06:19:28;;;;;;;7.10;2.67;;;12.40;99.90;;;;;;4955534;28;20501;-52
2022/09/19 06:22:09;;;;;;;5.15;1.80;;;12.40;99.90;;;;;;4954236;28;20517;-58
2022/09/19 06:24:36;;;;;;;5.13;2.30;;;12.40;99.90;;;;;;4955369;28;20086;-60
2022/09/19 06:27:05;;;;;;;5.07;2.20;;;12.40;99.90;;;;;;4951226;29;20142;-58
2022/09/19 06:29:33;;;;;;;6.78;2.53;;;12.40;99.90;;;;;;4956024;28;20398;-55
2022/09/19 06:32:24;;;;;;;5.90;2.55;;;12.40;99.90;;;;;;4947573;29;20047;-58
2022/09/19 06:35:14;;;;;;;6.50;2.45;;;12.40;99.90;;;;;;4954036;28;20047;-60
2022/09/19 06:37:41;;;;;;;7.95;2.72;;;12.40;99.90;;;;;;4954003;28;20101;-58
2022/09/19 06:40:10;;;;;;;6.65;2.50;;;12.50;99.90;;;;;;4954440;29;20490;-58
2022/09/19 06:42:40;;;;;;;5.55;2.53;;;12.50;99.90;;;;;;4942821;29;20406;-56
2022/09/19 06:45:37;;;;;;;8.27;2.80;;;12.50;99.90;;;;;;4952153;29;20079;-57
2022/09/19 06:48:16;;;;;;;6.47;2.53;;;12.50;99.90;;;;;;4941803;29;20047;-57
2022/09/19 06:50:52;;;;;;;6.63;2.55;;;12.60;99.90;;;;;;4952636;28;20146;-55
2022/09/19 06:53:21;;;;;;;9.00;2.80;;;12.60;99.90;;;;;;4951284;29;20094;-58
2022/09/19 06:55:52;;;;;;;7.88;2.65;;;12.60;99.90;;;;;;4952237;29;20047;-57
2022/09/19 06:58:24;;;;;;;9.05;2.72;;;12.70;99.90;;;;;;4950909;28;20047;-59
2022/09/19 07:00:53;;;;;;;10.63;2.78;;;12.70;99.90;;;;;;4952895;29;20043;-59
2022/09/19 07:03:22;;;;;;;10.73;3.28;;;12.70;99.90;;;;;;4952066;29;20398;-57
2022/09/19 07:05:59;;;;;;;7.78;2.90;;;12.70;99.90;;;;;;4953823;29;20410;-60
2022/09/19 07:08:45;;;;;;;9.38;3.08;;;12.80;99.90;;;;;;4952862;29;20153;-57
2022/09/19 07:11:12;;;;;;;10.75;2.83;;;12.80;99.90;;;;;;4954265;28;20461;-57
2022/09/19 07:13:43;;;;;;;9.75;3.42;;;12.80;99.90;;;;;;4949211;28;20055;-58
2022/09/19 07:16:10;;;;;;;6.57;2.78;;;12.90;99.90;;;;;;4948333;29;20083;-58
2022/09/19 07:18:38;;;;;;;9.95;3.10;;;12.90;99.90;;;;;;4952047;29;20058;-56
2022/09/19 07:21:24;;;;;;;8.30;2.60;;;12.90;99.90;;;;;;4953620;29;20407;-55
2022/09/19 07:23:54;;;;;;;8.95;3.05;;;13.00;99.90;;;;;;4951350;29;20436;-57
2022/09/19 07:26:31;;;;;;;8.52;2.83;;;13.00;99.90;;;;;;4943089;29;20135;-55
2022/09/19 07:28:58;;;;;;;7.22;3.00;;;13.00;99.90;;;;;;4952837;28;20054;-57
2022/09/19 07:31:26;;;;;;;10.30;2.78;;;13.00;99.90;;;;;;4953145;29;20577;-50
2022/09/19 07:33:53;;;;;;;7.18;2.72;;;13.10;99.90;;;;;;4944099;28;20050;-56
2022/09/19 07:36:26;;;;;;;6.18;2.95;;;13.10;99.90;;;;;;4941777;29;20051;-59
2022/09/19 07:38:57;;;;;;;7.13;2.95;;;13.20;99.90;;;;;;4944688;29;20044;-56
2022/09/19 07:41:31;;;;;;;7.25;2.90;;;13.20;99.90;;;;;;4952518;29;20466;-55
2022/09/19 07:44:17;;;;;;;5.05;2.70;;;13.20;99.90;;;;;;4953377;28;20125;-57
2022/09/19 07:47:26;;;;;;;6.00;2.88;;;13.30;99.90;;;;;;4952610;28;20504;-55
2022/09/19 07:49:48;;;;;;;6.30;2.70;;;13.30;99.90;;;;;;4953346;28;20395;-57
2022/09/19 07:52:33;;;;;;;6.50;2.65;;;13.40;99.90;;;;;;4958246;29;20058;-59
2022/09/19 07:55:00;;;;;;;8.43;2.88;;;13.40;99.90;;;;;;4955648;28;20134;-59
2022/09/19 07:57:29;;;;;;;9.13;3.30;;;13.50;99.90;;;;;;4946514;29;20047;-58
2022/09/19 07:59:56;;;;;;;7.95;3.00;;;13.60;99.90;;;;;;4954526;29;20058;-58
2022/09/19 08:02:23;;;;;;;7.63;2.78;;;13.60;99.90;;;;;;4956759;29;20043;-58
2022/09/19 08:04:51;;;;;;;7.50;2.60;;;13.70;99.90;;;;;;4956657;28;20084;-59
2022/09/19 08:07:20;;;;;;;8.40;2.90;;;13.70;99.90;;;;;;4956725;29;20075;-57
2022/09/19 08:09:47;;;;;;;7.07;3.08;;;13.80;99.90;;;;;;4956862;28;20126;-60
2022/09/19 08:12:18;;;;;;;7.38;3.08;;;13.80;99.90;;;;;;4943667;29;20403;-57
2022/09/19 08:15:03;;;;;;;11.07;3.08;;;13.80;99.90;;;;;;4924056;29;20048;-60
2022/09/19 08:17:30;;;;;;;13.50;6.15;;;13.90;99.90;;;;;;4922436;29;20048;-52
2022/09/19 08:19:56;;;;;;;16.45;5.90;;;13.90;99.60;;;;;;4939892;29;20099;-57
2022/09/19 08:22:24;;;;;;;8.65;2.95;;;13.90;99.40;;;;;;4956490;28;20098;-57
2022/09/19 08:25:00;;;;;;;7.63;2.53;;;13.90;99.20;;;;;;4956171;28;20102;-61
2022/09/19 08:27:27;;;;;;;12.68;2.55;;;13.90;98.40;;;;;;4956415;28;20047;-59
2022/09/19 08:29:54;;;;;;;7.40;2.33;;;13.90;98.20;;;;;;4954560;28;20133;-58
2022/09/19 08:32:22;;;;;;;7.68;3.05;;;13.90;98.10;;;;;;4953810;28;20070;-58
2022/09/19 08:34:48;;;;;;;10.93;3.33;;;13.90;98.50;;;;;;4956999;28;20443;-57
2022/09/19 08:37:16;;;;;;;9.13;2.33;;;14.00;98.20;;;;;;4953579;29;20056;-57
2022/09/19 08:42:36;;;;;;;5.30;1.75;;;14.10;98.10;;;;;;4944073;28;20142;-57
2022/09/19 08:45:03;;;;;;;9.65;2.45;;;14.20;97.60;;;;;;4952461;28;20055;-59
2022/09/19 08:47:30;;;;;;;8.82;1.90;;;14.30;97.70;;;;;;4957232;28;20043;-59
2022/09/19 08:49:56;;;;;;;8.55;1.73;;;14.40;97.70;;;;;;4954058;29;20051;-58
2022/09/19 08:52:23;;;;;;;5.80;1.73;;;14.40;96.80;;;;;;4952644;28;20052;-58
2022/09/19 08:54:50;;;;;;;8.48;2.15;;;14.40;96.60;;;;;;4926171;29;20046;-57
2022/09/19 08:57:25;;;;;;;7.35;1.60;;;14.50;96.60;;;;;;4951996;29;20043;-57
2022/09/19 08:59:57;;;;;;;9.32;1.50;;;14.50;95.90;;;;;;4946666;29;20423;-59
2022/09/19 09:02:26;;;;;;;6.32;1.58;;;14.60;95.50;;;;;;4935884;29;20047;-56
2022/09/19 09:05:06;;;;;;;5.90;1.65;;;14.60;95.70;;;;;;4953100;29;20439;-59
2022/09/19 09:07:32;;;;;;;6.07;1.40;;;14.70;95.10;;;;;;4951905;29;20115;-56
2022/09/19 09:10:21;;;;;;;8.00;1.58;;;14.70;95.00;;;;;;4953376;29;20134;-57
2022/09/19 09:12:48;;;;;;;5.95;1.23;;;14.70;94.70;;;;;;4951165;29;20216;-58
2022/09/19 09:15:17;;;;;;;5.28;1.25;;;14.80;94.70;;;;;;4950784;28;20099;-57
2022/09/19 09:17:53;;;;;;;7.25;1.30;;;14.90;93.80;;;;;;4945566;28;20094;-56
2022/09/19 09:20:20;;;;;;;5.47;1.17;;;14.80;93.50;;;;;;4945770;29;20035;-58
2022/09/19 09:22:47;;;;;;;5.30;1.08;;;14.80;93.90;;;;;;4939568;29;20052;-57
2022/09/19 09:25:30;;;;;;;3.80;1.05;;;14.80;93.20;;;;;;4945467;28;20050;-55
2022/09/19 09:28:02;;;;;;;7.28;1.23;;;14.70;93.00;;;;;;4943389;29;20399;-56
2022/09/19 09:30:41;;;;;;;5.78;1.27;;;14.70;93.30;;;;;;4949479;28;20055;-57
2022/09/19 09:33:08;;;;;;;5.82;1.40;;;14.70;93.50;;;;;;4947895;28;20054;-57
2022/09/19 09:35:34;;;;;;;4.32;1.10;;;14.80;93.40;;;;;;4956045;28;20047;-59
2022/09/19 09:38:08;;;;;;;4.35;1.20;;;14.80;93.40;;;;;;4952582;29;20040;-55
2022/09/19 09:43:22;;;;;;;;;;;14.90;93.40;;;;;;4951214;28;20499;-57
2022/09/19 09:45:53;;;;;;;4.93;1.17;;;14.90;93.10;;;;;;4951184;29;19926;-56
2022/09/19 09:48:26;;;;;;;4.18;1.15;;;14.90;93.30;;;;;;4946082;29;20048;-56
2022/09/19 09:50:54;;;;;;;4.30;0.98;;;14.90;92.80;;;;;;4942104;29;20051;-59
2022/09/19 09:53:20;;;;;;;4.10;1.05;;;15.00;93.00;;;;;;4954718;28;20031;-56
2022/09/19 09:58:35;;;;;;;6.45;1.05;;;15.10;92.40;;;;;;4953916;28;20431;-58
2022/09/19 10:03:49;;;;;;;4.22;0.93;;;15.20;92.10;;;;;;4968278;28;20376;-59
2022/09/19 10:06:35;;;;;;;3.95;0.80;;;15.20;91.00;;;;;;4952647;29;20491;-57
2022/09/19 10:09:05;;;;;;;6.20;0.98;;;15.30;91.60;;;;;;4952983;29;20074;-59
2022/09/19 10:11:37;;;;;;;4.45;0.73;;;15.50;91.10;;;;;;4962159;28;20499;-57
2022/09/19 10:14:25;;;;;;;4.38;0.85;;;15.50;90.60;;;;;;4952982;28;20065;-57
2022/09/19 10:16:56;;;;;;;3.15;0.70;;;15.50;90.50;;;;;;4952795;28;20074;-54
2022/09/19 10:19:30;;;;;;;2.03;0.60;;;15.50;90.90;;;;;;4951212;29;20491;-57
2022/09/19 10:21:57;;;;;;;3.05;0.68;;;15.70;90.00;;;;;;4952964;28;20047;-57
2022/09/19 10:24:24;;;;;;;3.85;0.93;;;15.70;90.60;;;;;;4950265;28;20114;-58
2022/09/19 10:26:51;;;;;;;2.45;0.80;;;15.80;90.60;;;;;;4949582;29;20044;-57
2022/09/19 10:29:20;;;;;;;4.55;1.02;;;15.90;90.40;;;;;;4949642;29;20102;-56
2022/09/19 10:32:07;;;;;;;6.55;1.20;;;15.90;90.70;;;;;;4946089;29;20043;-57
2022/09/19 10:35:00;;;;;;;3.83;0.95;;;16.00;90.50;;;;;;4955253;29;20117;-55
2022/09/19 10:37:28;;;;;;;3.20;0.80;;;16.10;90.30;;;;;;4948840;29;20043;-58
2022/09/19 10:39:55;;;;;;;3.90;1.00;;;16.20;90.70;;;;;;4950935;29;20043;-55
2022/09/19 10:42:26;;;;;;;4.57;0.98;;;16.20;90.60;;;;;;4936393;29;20074;-57
2022/09/19 10:44:54;;;;;;;4.72;1.23;;;16.30;90.20;;;;;;4932502;29;20035;-63
2022/09/19 10:47:21;;;;;;;4.40;1.00;;;16.30;90.30;;;;;;4936690;29;20455;-61
2022/09/19 10:49:56;;;;;;;5.35;0.98;;;16.40;90.10;;;;;;4951936;29;20066;-57
2022/09/19 10:52:39;;;;;;;4.32;0.85;;;16.50;90.10;;;;;;4933760;29;20106;-58
2022/09/19 10:55:20;;;;;;;4.63;0.88;;;16.50;90.30;;;;;;4950378;29;20078;-58
2022/09/19 10:57:47;;;;;;;4.03;0.90;;;16.60;89.90;;;;;;4951206;28;20051;-58
2022/09/19 11:00:20;;;;;;;4.88;0.82;;;16.60;89.80;;;;;;4936574;29;20079;-59
2022/09/19 11:02:47;;;;;;;5.07;1.02;;;16.50;89.00;;;;;;4935302;29;20134;-58
2022/09/19 11:05:14;;;;;;;3.92;1.02;;;16.50;90.20;;;;;;4935559;29;20091;-56
2022/09/19 11:07:42;;;;;;;4.72;0.82;;;16.50;90.10;;;;;;4951514;29;20095;-59
2022/09/19 11:10:14;;;;;;;3.75;1.30;;;16.50;89.40;;;;;;4952267;29;20055;-59
2022/09/19 11:12:42;;;;;;;4.82;1.00;;;16.50;90.00;;;;;;4936677;29;21946;-58
2022/09/19 11:15:09;;;;;;;3.65;1.02;;;16.50;89.90;;;;;;4944461;29;20136;-61
2022/09/19 11:17:37;;;;;;;3.47;1.15;;;16.50;89.40;;;;;;4954491;28;20035;-56
2022/09/19 11:20:08;;;;;;;3.85;1.10;;;16.50;89.50;;;;;;4953714;29;20486;-53
2022/09/19 11:22:37;;;;;;;6.57;1.20;;;16.50;90.00;;;;;;4950136;29;20055;-56
2022/09/19 11:25:03;;;;;;;5.20;1.13;;;16.50;89.60;;;;;;4959759;28;20399;-53
2022/09/19 11:27:30;;;;;;;4.55;1.10;;;16.50;90.00;;;;;;4946451;29;20054;-60
2022/09/19 11:29:57;;;;;;;3.45;1.10;;;16.60;90.30;;;;;;4954076;28;20130;-57
2022/09/19 11:32:24;;;;;;;3.28;0.75;;;16.70;89.30;;;;;;4948230;29;20058;-58
2022/09/19 11:35:13;;;;;;;3.28;0.80;;;16.70;90.30;;;;;;4940960;29;20042;-61
2022/09/19 11:37:53;;;;;;;3.25;1.20;;;16.80;90.20;;;;;;4952187;29;20070;-58
2022/09/19 11:40:20;;;;;;;3.83;0.90;;;16.70;90.00;;;;;;4952631;28;20039;-60
2022/09/19 11:42:48;;;;;;;3.90;1.23;;;16.60;90.20;;;;;;4953845;29;20139;-55
2022/09/19 11:45:14;;;;;;;3.47;1.23;;;16.50;90.20;;;;;;4955160;29;20052;-55
2022/09/19 11:47:50;;;;;;;4.88;1.20;;;16.60;90.10;;;;;;4953519;29;20039;-59
2022/09/19 11:50:20;;;;;;;2.72;1.38;;;16.60;89.90;;;;;;4948114;29;20074;-58
2022/09/19 11:52:47;;;;;;;4.47;1.60;;;16.60;90.20;;;;;;4956726;28;20101;-61
2022/09/19 11:55:21;;;;;;;2.58;1.00;;;16.70;89.80;;;;;;4955920;28;20050;-57
2022/09/19 11:57:50;;;;;;;2.72;1.05;;;16.80;89.00;;;;;;4952285;29;20047;-57
2022/09/19 12:00:17;;;;;;;3.92;1.40;;;16.80;89.50;;;;;;4956359;29;20137;-58
2022/09/19 12:02:45;;;;;;;3.05;1.33;;;16.80;89.70;;;;;;4957227;28;20498;-61
2022/09/19 12:05:17;;;;;;;3.05;1.00;;;16.90;89.50;;;;;;4956170;28;20098;-57
2022/09/19 12:07:47;;;;;;;3.00;1.20;;;16.90;88.60;;;;;;4952135;29;20097;-52
2022/09/19 12:10:14;;;;;;;3.17;1.20;;;16.90;88.80;;;;;;4953910;29;20043;-59
2022/09/19 12:12:43;;;;;;;5.60;1.23;;;17.00;88.80;;;;;;4946407;29;20050;-53
2022/09/19 12:15:23;;;;;;;3.85;1.52;;;17.00;89.10;;;;;;4952487;29;20107;-54
2022/09/19 12:17:51;;;;;;;3.33;1.25;;;17.10;88.40;;;;;;4956239;28;20118;-57
2022/09/19 12:20:27;;;;;;;2.85;1.15;;;17.10;88.80;;;;;;4947706;29;20050;-57
2022/09/19 12:22:54;;;;;;;3.58;1.25;;;17.10;89.70;;;;;;4954841;28;20043;-57
2022/09/19 12:25:22;;;;;;;2.63;1.33;;;17.10;89.30;;;;;;4939559;28;20040;-59
2022/09/19 12:27:50;;;;;;;3.15;1.27;;;17.20;88.50;;;;;;4955347;29;20082;-58
2022/09/19 12:30:18;;;;;;;5.35;1.40;;;17.30;88.60;;;;;;4955363;28;20051;-59
2022/09/19 12:32:48;;;;;;;3.15;1.10;;;17.40;89.00;;;;;;4951399;29;20051;-56
2022/09/19 12:35:20;;;;;;;3.65;1.25;;;17.50;88.90;;;;;;4953168;28;20140;-57
2022/09/19 12:37:49;;;;;;;3.33;1.23;;;17.50;87.00;;;;;;4946580;29;20078;-56
2022/09/19 12:40:16;;;;;;;4.15;1.20;;;17.70;86.60;;;;;;4948973;29;20403;-55
2022/09/19 12:42:44;;;;;;;2.22;1.10;;;17.80;86.20;;;;;;4956251;29;20039;-55
2022/09/19 12:45:13;;;;;;;2.25;0.82;;;17.80;85.50;;;;;;4954791;28;20054;-61
2022/09/19 12:47:41;;;;;;;3.35;1.20;;;17.90;86.60;;;;;;4954625;28;20051;-57
2022/09/19 12:50:32;;;;;;;2.33;0.98;;;17.80;85.00;;;;;;4954734;29;20391;-62
2022/09/19 12:52:59;;;;;;;3.35;1.38;;;17.90;86.60;;;;;;4954270;28;20498;-53
2022/09/19 12:55:26;;;;;;;4.15;1.08;;;18.00;86.60;;;;;;4952664;28;20082;-59
2022/09/19 12:57:53;;;;;;;4.00;1.35;;;18.20;86.30;;;;;;4934186;29;20052;-59
2022/09/19 13:00:20;;;;;;;2.40;1.20;;;18.30;84.60;;;;;;4956793;28;20469;-60
2022/09/19 13:02:48;;;;;;;3.58;1.20;;;18.20;85.20;;;;;;4955317;29;20039;-54
2022/09/19 13:05:15;;;;;;;3.17;1.13;;;18.20;84.70;;;;;;4943318;29;20425;-59
2022/09/19 13:07:43;;;;;;;4.70;1.40;;;18.20;84.30;;;;;;4952044;28;20070;-56
2022/09/19 13:10:09;;;;;;;3.60;1.00;;;18.20;84.70;;;;;;4955724;28;20031;-59
2022/09/19 13:12:36;;;;;;;3.35;1.30;;;18.20;84.90;;;;;;4953104;29;20047;-59
2022/09/19 13:15:04;;;;;;;3.72;1.40;;;18.20;85.00;;;;;;4955013;29;20067;-60
2022/09/19 13:25:48;;;;;;;;;;;18.60;85.10;;;;;;4953733;29;20043;-58
2022/09/19 13:28:17;;;;;;;4.65;1.38;;;18.50;84.60;;;;;;4955629;28;19957;-59